createdAt,value
2018-09-18T01:31:35.223Z,17.99
2018-09-18T01:31:35.724Z,18.38
2018-09-18T01:31:36.323Z,17.80
2018-09-18T01:31:36.924Z,18.19
2018-09-18T01:31:37.523Z,18.28
2018-09-18T01:31:38.124Z,18.28
2018-09-18T01:31:38.721Z,18.38
2018-09-18T01:32:33.184Z,17.71
2018-09-18T01:32:33.782Z,17.71
2018-09-18T01:32:34.379Z,17.71
2018-09-18T01:32:34.981Z,17.71
2018-09-18T01:32:35.580Z,17.71
2018-09-18T01:32:36.179Z,17.91
2018-09-18T01:32:36.783Z,17.99
2018-09-18T01:33:50.805Z,18.85
2018-09-18T01:33:51.400Z,19.15
2018-09-18T01:33:52.001Z,18.85
2018-09-18T01:33:52.600Z,19.13
2018-09-18T01:33:53.199Z,19.13
2018-09-18T01:33:53.798Z,19.04
2018-09-18T01:33:54.400Z,19.13
2018-09-18T01:34:48.457Z,19.05
2018-09-18T01:34:49.054Z,19.23
2018-09-18T01:34:49.652Z,19.23
2018-09-18T01:34:50.252Z,19.13
2018-09-18T01:34:50.851Z,19.04
2018-09-18T01:34:51.452Z,19.15
2018-09-18T01:34:52.053Z,19.15
2018-09-18T01:35:46.109Z,19.04
2018-09-18T01:35:46.705Z,19.24
2018-09-18T01:35:47.305Z,19.15
2018-09-18T01:35:47.904Z,19.13
2018-09-18T01:35:48.504Z,18.96
2018-09-18T01:35:49.105Z,19.15
2018-09-18T01:35:49.705Z,19.13
2018-09-18T01:36:43.782Z,19.34
2018-09-18T01:36:44.359Z,19.15
2018-09-18T01:36:44.958Z,19.34
2018-09-18T01:36:45.557Z,19.05
2018-09-18T01:36:46.161Z,18.86
2018-09-18T01:36:46.756Z,18.86
2018-09-18T01:36:47.361Z,18.96
2018-09-18T01:37:41.412Z,18.95
2018-09-18T01:37:42.009Z,18.86
2018-09-18T01:37:42.608Z,19.24
2018-09-18T01:37:43.209Z,19.15
2018-09-18T01:37:43.809Z,19.15
2018-09-18T01:37:44.407Z,19.24
2018-09-18T01:37:45.008Z,19.43
2018-09-18T01:38:39.064Z,19.91
2018-09-18T01:38:39.662Z,19.91
2018-09-18T01:38:40.262Z,20.00
2018-09-18T01:38:40.862Z,19.72
2018-09-18T01:38:41.462Z,19.81
2018-09-18T01:38:42.062Z,19.72
2018-09-18T01:38:42.661Z,19.81
2018-09-18T01:39:36.717Z,19.34
2018-09-18T01:39:37.313Z,19.34
2018-09-18T01:39:37.913Z,19.43
2018-09-18T01:39:38.513Z,19.34
2018-09-18T01:39:39.113Z,19.43
2018-09-18T01:39:39.716Z,19.43
2018-09-18T01:39:40.314Z,19.34
2018-09-18T01:40:34.367Z,19.33
2018-09-18T01:40:34.966Z,19.62
2018-09-18T01:40:35.565Z,19.34
2018-09-18T01:40:36.165Z,19.34
2018-09-18T01:40:36.769Z,19.15
2018-09-18T01:40:37.364Z,19.62
2018-09-18T01:40:37.965Z,19.62
2018-09-18T01:41:32.043Z,19.24
2018-09-18T01:41:32.617Z,19.24
2018-09-18T01:41:33.217Z,19.24
2018-09-18T01:41:33.817Z,19.15
2018-09-18T01:41:34.415Z,19.34
2018-09-18T01:41:35.017Z,19.05
2018-09-18T01:41:35.618Z,19.43
2018-09-18T01:42:29.676Z,18.67
2018-09-18T01:42:30.301Z,18.86
2018-09-18T01:42:30.912Z,18.86
2018-09-18T01:42:31.510Z,18.86
2018-09-18T01:42:32.070Z,18.77
2018-09-18T01:42:32.669Z,18.29
2018-09-18T01:42:33.273Z,18.29
2018-09-18T01:43:39.015Z,17.91
2018-09-18T01:43:39.629Z,17.72
2018-09-18T01:43:40.226Z,17.72
2018-09-18T01:43:40.797Z,18.10
2018-09-18T01:43:41.403Z,17.81
2018-09-18T01:43:42.013Z,18.01
2018-09-18T01:43:42.600Z,18.10
2018-09-18T01:44:36.648Z,17.81
2018-09-18T01:44:37.247Z,17.81
2018-09-18T01:44:37.846Z,18.01
2018-09-18T01:44:38.446Z,18.01
2018-09-18T01:44:39.047Z,17.81
2018-09-18T01:44:39.646Z,17.91
2018-09-18T01:44:40.246Z,17.81
2018-09-18T01:45:34.302Z,18.01
2018-09-18T01:45:34.899Z,17.62
2018-09-18T01:45:35.499Z,17.72
2018-09-18T01:45:36.098Z,18.01
2018-09-18T01:45:36.699Z,17.62
2018-09-18T01:45:37.297Z,17.72
2018-09-18T01:45:37.896Z,18.01
2018-09-18T01:46:31.974Z,18.48
2018-09-18T01:46:32.550Z,18.38
2018-09-18T01:46:33.149Z,18.48
2018-09-18T01:46:33.750Z,18.29
2018-09-18T01:46:34.349Z,18.48
2018-09-18T01:46:34.950Z,18.38
2018-09-18T01:46:35.549Z,18.48
2018-09-18T01:47:29.604Z,17.72
2018-09-18T01:47:30.204Z,17.62
2018-09-18T01:47:30.802Z,17.62
2018-09-18T01:47:31.403Z,17.72
2018-09-18T01:47:32.001Z,18.01
2018-09-18T01:47:32.602Z,17.81
2018-09-18T01:47:33.201Z,17.81
2018-09-18T01:48:27.257Z,17.81
2018-09-18T01:48:27.853Z,17.72
2018-09-18T01:48:28.453Z,17.72
2018-09-18T01:48:29.053Z,17.62
2018-09-18T01:48:29.653Z,17.72
2018-09-18T01:48:30.252Z,17.81
2018-09-18T01:48:30.852Z,17.62
2018-09-18T01:49:24.907Z,17.72
2018-09-18T01:49:25.508Z,17.81
2018-09-18T01:49:26.111Z,17.62
2018-09-18T01:49:26.705Z,17.53
2018-09-18T01:49:27.305Z,17.43
2018-09-18T01:49:27.905Z,17.53
2018-09-18T01:49:28.506Z,17.53
2018-09-18T01:50:22.562Z,17.33
2018-09-18T01:50:23.160Z,17.24
2018-09-18T01:50:23.757Z,17.14
2018-09-18T01:50:24.356Z,17.43
2018-09-18T01:50:24.959Z,17.24
2018-09-18T01:50:25.554Z,17.14
2018-09-18T01:50:26.155Z,17.53
2018-09-18T01:51:20.235Z,16.96
2018-09-18T01:51:20.811Z,16.86
2018-09-18T01:51:21.410Z,16.96
2018-09-18T01:51:22.009Z,16.58
2018-09-18T01:51:22.608Z,16.77
2018-09-18T01:51:23.209Z,16.67
2018-09-18T01:51:23.808Z,16.77
2018-09-18T01:52:17.862Z,16.19
2018-09-18T01:52:18.460Z,16.29
2018-09-18T01:52:19.060Z,16.00
2018-09-18T01:52:19.661Z,16.09
2018-09-18T01:52:20.263Z,16.58
2018-09-18T01:52:20.860Z,16.77
2018-09-18T01:52:21.459Z,16.48
2018-09-18T01:53:15.514Z,16.58
2018-09-18T01:53:16.116Z,16.67
2018-09-18T01:53:16.712Z,16.67
2018-09-18T01:53:17.312Z,16.77
2018-09-18T01:53:17.911Z,16.58
2018-09-18T01:53:18.510Z,16.67
2018-09-18T01:53:19.111Z,16.68
2018-09-18T01:54:13.167Z,18.11
2018-09-18T01:54:13.764Z,17.92
2018-09-18T01:54:14.363Z,18.01
2018-09-18T01:54:14.963Z,18.01
2018-09-18T01:54:15.563Z,17.81
2018-09-18T01:54:16.163Z,17.81
2018-09-18T01:54:16.764Z,17.82
2018-09-18T01:55:10.818Z,18.59
2018-09-18T01:55:11.417Z,18.40
2018-09-18T01:55:12.016Z,18.68
2018-09-18T01:55:12.615Z,18.59
2018-09-18T01:55:13.216Z,18.68
2018-09-18T01:55:13.816Z,18.40
2018-09-18T01:55:14.416Z,18.30
2018-09-18T01:56:08.494Z,18.68
2018-09-18T01:56:09.068Z,18.77
2018-09-18T01:56:09.666Z,18.68
2018-09-18T01:56:10.267Z,18.77
2018-09-18T01:56:10.867Z,18.68
2018-09-18T01:56:11.467Z,18.68
2018-09-18T01:56:12.066Z,18.77
2018-09-18T01:57:06.123Z,19.44
2018-09-18T01:57:06.720Z,19.16
2018-09-18T01:57:07.319Z,19.25
2018-09-18T01:57:07.918Z,19.16
2018-09-18T01:57:08.520Z,19.06
2018-09-18T01:57:09.118Z,19.25
2018-09-18T01:57:09.718Z,19.44
2018-09-18T01:58:03.773Z,18.87
2018-09-18T01:58:04.373Z,18.87
2018-09-18T01:58:04.971Z,18.77
2018-09-18T01:58:05.571Z,18.96
2018-09-18T01:58:06.172Z,18.77
2018-09-18T01:58:06.771Z,18.87
2018-09-18T01:58:07.371Z,18.77
2018-09-18T01:59:01.426Z,19.35
2018-09-18T01:59:02.023Z,19.44
2018-09-18T01:59:02.623Z,19.44
2018-09-18T01:59:03.223Z,19.25
2018-09-18T01:59:03.825Z,19.35
2018-09-18T01:59:04.422Z,19.25
2018-09-18T01:59:05.022Z,19.06
2018-09-18T01:59:59.082Z,19.92
2018-09-18T01:59:59.676Z,19.82
2018-09-18T02:00:00.273Z,20.01
2018-09-18T02:00:00.875Z,19.92
2018-09-18T02:00:01.477Z,19.92
2018-09-18T02:00:02.074Z,19.92
2018-09-18T02:00:02.676Z,20.01
2018-09-18T02:00:56.729Z,20.20
2018-09-18T02:00:57.327Z,20.20
2018-09-18T02:00:57.928Z,20.20
2018-09-18T02:00:58.526Z,20.49
2018-09-18T02:00:59.128Z,20.40
2018-09-18T02:00:59.726Z,20.40
2018-09-18T02:01:00.326Z,20.59
2018-09-18T02:01:54.404Z,21.25
2018-09-18T02:01:54.978Z,21.25
2018-09-18T02:01:55.580Z,21.25
2018-09-18T02:01:56.178Z,21.25
2018-09-18T02:01:56.782Z,21.16
2018-09-18T02:01:57.377Z,21.25
2018-09-18T02:01:57.977Z,21.16
2018-09-18T02:02:52.034Z,21.25
2018-09-18T02:02:52.632Z,21.25
2018-09-18T02:02:53.231Z,21.25
2018-09-18T02:02:53.829Z,21.35
2018-09-18T02:02:54.430Z,21.44
2018-09-18T02:02:55.030Z,21.35
2018-09-18T02:02:55.630Z,21.25
2018-09-18T02:03:49.685Z,21.73
2018-09-18T02:03:50.284Z,21.83
2018-09-18T02:03:50.885Z,21.73
2018-09-18T02:03:51.480Z,22.20
2018-09-18T02:03:52.081Z,21.92
2018-09-18T02:03:52.679Z,22.02
2018-09-18T02:03:53.280Z,22.02
2018-09-18T02:04:47.340Z,23.25
2018-09-18T02:04:47.933Z,23.25
2018-09-18T02:04:48.534Z,23.07
2018-09-18T02:04:49.133Z,23.07
2018-09-18T02:04:49.733Z,23.07
2018-09-18T02:04:50.336Z,23.25
2018-09-18T02:04:50.933Z,23.25
2018-09-18T02:05:44.988Z,23.35
2018-09-18T02:05:45.586Z,23.73
2018-09-18T02:05:46.185Z,23.73
2018-09-18T02:05:46.787Z,23.44
2018-09-18T02:05:47.385Z,23.83
2018-09-18T02:05:47.988Z,23.64
2018-09-18T02:05:48.585Z,23.64
2018-09-18T02:06:42.662Z,24.68
2018-09-18T02:06:43.237Z,24.49
2018-09-18T02:06:43.836Z,24.68
2018-09-18T02:06:44.436Z,24.49
2018-09-18T02:06:45.037Z,24.40
2018-09-18T02:06:45.635Z,24.78
2018-09-18T02:06:46.236Z,24.68
2018-09-18T02:07:40.291Z,25.54
2018-09-18T02:07:40.889Z,25.92
2018-09-18T02:07:41.489Z,25.83
2018-09-18T02:07:42.089Z,25.83
2018-09-18T02:07:42.688Z,25.73
2018-09-18T02:07:43.288Z,25.83
2018-09-18T02:07:43.888Z,25.92
2018-09-18T02:08:37.943Z,26.68
2018-09-18T02:08:38.540Z,26.59
2018-09-18T02:08:39.140Z,26.50
2018-09-18T02:08:39.740Z,26.50
2018-09-18T02:08:40.339Z,27.07
2018-09-18T02:08:40.940Z,26.88
2018-09-18T02:08:41.539Z,26.68
2018-09-18T02:09:36.569Z,27.64
2018-09-18T02:09:37.084Z,27.55
2018-09-18T02:09:37.210Z,27.26
2018-09-18T02:09:37.665Z,27.73
2018-09-18T02:09:38.264Z,27.64
2018-09-18T02:09:38.863Z,27.64
2018-09-18T02:09:39.463Z,27.83
2018-09-18T02:10:33.450Z,27.55
2018-09-18T02:10:34.049Z,27.64
2018-09-18T02:10:34.649Z,27.83
2018-09-18T02:10:35.248Z,27.55
2018-09-18T02:10:35.847Z,27.45
2018-09-18T02:10:36.451Z,27.55
2018-09-18T02:10:37.048Z,27.64
2018-09-18T02:11:31.132Z,28.88
2018-09-18T02:11:31.701Z,28.88
2018-09-18T02:11:32.302Z,28.78
2018-09-18T02:11:32.900Z,28.69
2018-09-18T02:11:33.500Z,28.69
2018-09-18T02:11:34.100Z,28.69
2018-09-18T02:11:34.700Z,28.78
2018-09-18T02:12:28.756Z,30.40
2018-09-18T02:12:29.351Z,30.60
2018-09-18T02:12:29.953Z,30.40
2018-09-18T02:12:30.552Z,30.50
2018-09-18T02:12:31.151Z,30.79
2018-09-18T02:12:31.754Z,30.60
2018-09-18T02:12:32.351Z,30.69
2018-09-18T02:13:26.407Z,32.03
2018-09-18T02:13:27.003Z,31.93
2018-09-18T02:13:27.605Z,31.93
2018-09-18T02:13:28.203Z,31.93
2018-09-18T02:13:28.803Z,31.93
2018-09-18T02:13:29.403Z,32.12
2018-09-18T02:13:30.004Z,32.03
2018-09-18T02:14:24.059Z,31.74
2018-09-18T02:14:24.655Z,31.56
2018-09-18T02:14:25.255Z,31.64
2018-09-18T02:14:25.855Z,31.74
2018-09-18T02:14:26.458Z,31.45
2018-09-18T02:14:27.054Z,31.55
2018-09-18T02:14:27.654Z,31.74
2018-09-18T02:15:21.711Z,30.40
2018-09-18T02:15:22.314Z,30.61
2018-09-18T02:15:22.907Z,30.52
2018-09-18T02:15:23.509Z,30.80
2018-09-18T02:15:24.108Z,30.90
2018-09-18T02:15:24.707Z,30.90
2018-09-18T02:15:25.310Z,30.90
2018-09-18T02:16:19.360Z,31.84
2018-09-18T02:16:19.960Z,31.76
2018-09-18T02:16:20.560Z,31.76
2018-09-18T02:16:21.160Z,31.76
2018-09-18T02:16:21.758Z,31.76
2018-09-18T02:16:22.359Z,31.76
2018-09-18T02:16:22.959Z,31.66
2018-09-18T02:17:17.041Z,30.79
2018-09-18T02:17:17.609Z,30.71
2018-09-18T02:17:18.208Z,30.71
2018-09-18T02:17:18.809Z,30.80
2018-09-18T02:17:19.412Z,30.61
2018-09-18T02:17:20.007Z,30.71
2018-09-18T02:17:20.608Z,30.71
2018-09-18T02:18:14.665Z,32.32
2018-09-18T02:18:15.263Z,31.95
2018-09-18T02:18:15.862Z,31.95
2018-09-18T02:18:16.463Z,32.04
2018-09-18T02:18:17.062Z,32.04
2018-09-18T02:18:17.662Z,32.42
2018-09-18T02:18:18.262Z,32.52
2018-09-18T02:19:12.315Z,34.90
2018-09-18T02:19:12.914Z,35.00
2018-09-18T02:19:13.514Z,34.81
2018-09-18T02:19:14.115Z,34.90
2018-09-18T02:19:14.713Z,34.71
2018-09-18T02:19:15.314Z,34.71
2018-09-18T02:19:15.914Z,34.61
2018-09-18T02:20:09.968Z,34.33
2018-09-18T02:20:10.565Z,34.33
2018-09-18T02:20:11.166Z,34.33
2018-09-18T02:20:11.765Z,34.23
2018-09-18T02:20:12.365Z,34.61
2018-09-18T02:20:12.968Z,34.33
2018-09-18T02:20:13.565Z,34.42
2018-09-18T02:21:07.620Z,33.66
2018-09-18T02:21:08.217Z,33.66
2018-09-18T02:21:08.817Z,33.66
2018-09-18T02:21:09.419Z,33.85
2018-09-18T02:21:10.017Z,33.66
2018-09-18T02:21:10.616Z,33.57
2018-09-18T02:21:11.217Z,33.66
2018-09-18T02:22:05.296Z,33.57
2018-09-18T02:22:05.870Z,33.47
2018-09-18T02:22:06.468Z,33.85
2018-09-18T02:22:07.069Z,33.95
2018-09-18T02:22:07.669Z,34.14
2018-09-18T02:22:08.268Z,33.85
2018-09-18T02:22:08.868Z,33.95
2018-09-18T02:23:02.924Z,35.19
2018-09-18T02:23:03.520Z,35.28
2018-09-18T02:23:04.121Z,35.19
2018-09-18T02:23:04.722Z,35.19
2018-09-18T02:23:05.323Z,35.10
2018-09-18T02:23:05.920Z,35.19
2018-09-18T02:23:06.519Z,34.90
2018-09-18T02:24:00.574Z,35.38
2018-09-18T02:24:01.173Z,35.47
2018-09-18T02:24:01.773Z,35.57
2018-09-18T02:24:02.373Z,35.47
2018-09-18T02:24:02.972Z,35.47
2018-09-18T02:24:03.574Z,35.47
2018-09-18T02:24:04.172Z,35.38
2018-09-18T02:24:58.228Z,35.28
2018-09-18T02:24:58.831Z,35.38
2018-09-18T02:24:59.424Z,35.38
2018-09-18T02:25:00.024Z,35.28
2018-09-18T02:25:00.624Z,35.38
2018-09-18T02:25:01.225Z,35.38
2018-09-18T02:25:01.824Z,35.19
2018-09-18T02:25:55.879Z,36.52
2018-09-18T02:25:56.475Z,36.52
2018-09-18T02:25:57.074Z,36.62
2018-09-18T02:25:57.676Z,36.71
2018-09-18T02:25:58.274Z,36.71
2018-09-18T02:25:58.876Z,36.62
2018-09-18T02:25:59.474Z,36.62
2018-09-18T02:26:53.551Z,36.90
2018-09-18T02:26:54.127Z,37.00
2018-09-18T02:26:54.728Z,36.90
2018-09-18T02:26:55.326Z,36.90
2018-09-18T02:26:55.928Z,36.90
2018-09-18T02:26:56.527Z,36.90
2018-09-18T02:26:57.127Z,36.90
2018-09-18T02:27:51.182Z,38.43
2018-09-18T02:27:51.779Z,38.34
2018-09-18T02:27:52.379Z,38.43
2018-09-18T02:27:52.980Z,38.43
2018-09-18T02:27:53.579Z,38.53
2018-09-18T02:27:54.179Z,38.34
2018-09-18T02:27:54.778Z,38.62
2018-09-18T02:28:48.834Z,39.29
2018-09-18T02:28:49.431Z,39.19
2018-09-18T02:28:50.031Z,39.29
2018-09-18T02:28:50.630Z,39.19
2018-09-18T02:28:51.232Z,39.39
2018-09-18T02:28:51.830Z,39.29
2018-09-18T02:28:52.430Z,39.67
2018-09-18T02:29:46.486Z,39.58
2018-09-18T02:29:47.083Z,39.58
2018-09-18T02:29:47.683Z,39.48
2018-09-18T02:29:48.282Z,39.48
2018-09-18T02:29:48.883Z,39.48
2018-09-18T02:29:49.484Z,39.67
2018-09-18T02:29:50.083Z,39.48
2018-09-18T02:30:44.140Z,40.24
2018-09-18T02:30:44.734Z,40.24
2018-09-18T02:30:45.335Z,40.15
2018-09-18T02:30:45.935Z,40.15
2018-09-18T02:30:46.534Z,40.34
2018-09-18T02:30:47.135Z,40.24
2018-09-18T02:30:47.735Z,40.34
2018-09-18T02:31:41.789Z,41.58
2018-09-18T02:31:42.387Z,41.48
2018-09-18T02:31:42.988Z,41.20
2018-09-18T02:31:43.587Z,41.77
2018-09-18T02:31:44.189Z,41.67
2018-09-18T02:31:44.786Z,41.48
2018-09-18T02:31:45.386Z,41.77
2018-09-18T02:32:39.461Z,41.77
2018-09-18T02:32:40.038Z,41.96
2018-09-18T02:32:40.638Z,41.96
2018-09-18T02:32:41.237Z,41.77
2018-09-18T02:32:41.839Z,41.86
2018-09-18T02:32:42.439Z,41.86
2018-09-18T02:32:43.041Z,42.15
2018-09-18T02:33:37.092Z,41.10
2018-09-18T02:33:37.690Z,41.48
2018-09-18T02:33:38.290Z,41.10
2018-09-18T02:33:38.890Z,41.29
2018-09-18T02:33:39.489Z,41.29
2018-09-18T02:33:40.093Z,41.29
2018-09-18T02:33:40.689Z,41.00
2018-09-18T02:34:34.745Z,40.34
2018-09-18T02:34:35.341Z,40.24
2018-09-18T02:34:35.945Z,40.15
2018-09-18T02:34:36.544Z,40.34
2018-09-18T02:34:37.143Z,40.24
2018-09-18T02:34:37.753Z,40.24
2018-09-18T02:34:38.339Z,40.24
2018-09-18T02:35:32.395Z,40.72
2018-09-18T02:35:32.993Z,40.72
2018-09-18T02:35:33.593Z,40.72
2018-09-18T02:35:34.192Z,40.63
2018-09-18T02:35:34.794Z,40.72
2018-09-18T02:35:35.392Z,40.63
2018-09-18T02:35:35.993Z,40.53
2018-09-18T02:36:30.046Z,41.77
2018-09-18T02:36:30.644Z,41.96
2018-09-18T02:36:31.246Z,41.86
2018-09-18T02:36:31.845Z,41.96
2018-09-18T02:36:32.444Z,41.96
2018-09-18T02:36:33.044Z,41.86
2018-09-18T02:36:33.649Z,41.86
2018-09-18T02:37:27.729Z,41.86
2018-09-18T02:37:28.296Z,41.67
2018-09-18T02:37:28.893Z,41.77
2018-09-18T02:37:29.495Z,41.86
2018-09-18T02:37:30.101Z,41.86
2018-09-18T02:37:30.697Z,41.86
2018-09-18T02:37:31.295Z,41.77
2018-09-18T02:38:25.352Z,42.91
2018-09-18T02:38:25.947Z,42.82
2018-09-18T02:38:26.550Z,42.91
2018-09-18T02:38:27.148Z,43.01
2018-09-18T02:38:27.747Z,42.91
2018-09-18T02:38:28.349Z,43.20
2018-09-18T02:38:28.945Z,43.01
2018-09-18T02:39:23.003Z,42.82
2018-09-18T02:39:23.599Z,42.91
2018-09-18T02:39:24.200Z,42.82
2018-09-18T02:39:24.801Z,42.82
2018-09-18T02:39:25.400Z,42.82
2018-09-18T02:39:25.998Z,42.72
2018-09-18T02:39:26.599Z,42.82
2018-09-18T02:40:20.653Z,43.10
2018-09-18T02:40:21.250Z,43.10
2018-09-18T02:40:21.853Z,43.29
2018-09-18T02:40:22.450Z,43.20
2018-09-18T02:40:23.051Z,43.20
2018-09-18T02:40:23.651Z,43.58
2018-09-18T02:40:24.250Z,43.49
2018-09-18T02:41:18.305Z,44.53
2018-09-18T02:41:18.904Z,44.63
2018-09-18T02:41:19.502Z,44.73
2018-09-18T02:41:20.102Z,44.73
2018-09-18T02:41:20.705Z,44.44
2018-09-18T02:41:21.302Z,44.73
2018-09-18T02:41:21.903Z,44.63
2018-09-18T02:42:15.979Z,43.58
2018-09-18T02:42:16.553Z,43.49
2018-09-18T02:42:17.156Z,43.58
2018-09-18T02:42:17.753Z,43.58
2018-09-18T02:42:18.354Z,43.58
2018-09-18T02:42:18.954Z,43.49
2018-09-18T02:42:19.555Z,43.58
2018-09-18T02:43:13.609Z,43.96
2018-09-18T02:43:14.207Z,43.96
2018-09-18T02:43:14.806Z,44.06
2018-09-18T02:43:15.407Z,43.96
2018-09-18T02:43:16.005Z,44.06
2018-09-18T02:43:16.607Z,44.25
2018-09-18T02:43:17.206Z,43.87
2018-09-18T02:44:11.261Z,44.82
2018-09-18T02:44:11.857Z,44.63
2018-09-18T02:44:12.462Z,45.01
2018-09-18T02:44:13.059Z,44.92
2018-09-18T02:44:13.659Z,44.73
2018-09-18T02:44:14.258Z,44.82
2018-09-18T02:44:14.859Z,44.53
2018-09-18T02:45:08.916Z,45.58
2018-09-18T02:45:09.511Z,45.39
2018-09-18T02:45:10.109Z,45.29
2018-09-18T02:45:10.710Z,45.58
2018-09-18T02:45:11.310Z,45.29
2018-09-18T02:45:11.914Z,45.49
2018-09-18T02:45:12.510Z,45.20
2018-09-18T02:46:06.568Z,43.87
2018-09-18T02:46:07.162Z,43.77
2018-09-18T02:46:07.762Z,43.68
2018-09-18T02:46:08.361Z,43.87
2018-09-18T02:46:08.963Z,43.87
2018-09-18T02:46:09.560Z,43.77
2018-09-18T02:46:10.161Z,43.77
2018-09-18T02:47:04.245Z,43.39
2018-09-18T02:47:04.812Z,43.49
2018-09-18T02:47:05.415Z,43.29
2018-09-18T02:47:06.013Z,43.39
2018-09-18T02:47:06.613Z,43.49
2018-09-18T02:47:07.221Z,43.58
2018-09-18T02:47:07.813Z,43.49
2018-09-18T02:48:01.869Z,44.73
2018-09-18T02:48:02.467Z,45.01
2018-09-18T02:48:03.067Z,44.63
2018-09-18T02:48:03.666Z,44.92
2018-09-18T02:48:04.265Z,44.63
2018-09-18T02:48:04.865Z,44.73
2018-09-18T02:48:05.465Z,44.73
2018-09-18T02:48:59.520Z,45.01
2018-09-18T02:49:00.117Z,44.82
2018-09-18T02:49:00.716Z,44.63
2018-09-18T02:49:01.319Z,44.92
2018-09-18T02:49:01.918Z,45.01
2018-09-18T02:49:02.516Z,44.73
2018-09-18T02:49:03.121Z,44.92
2018-09-18T02:49:57.171Z,44.25
2018-09-18T02:49:57.806Z,44.53
2018-09-18T02:49:58.368Z,44.53
2018-09-18T02:49:58.967Z,44.34
2018-09-18T02:49:59.568Z,44.44
2018-09-18T02:50:00.168Z,44.44
2018-09-18T02:50:00.768Z,44.34
2018-09-18T02:50:54.824Z,44.63
2018-09-18T02:50:55.421Z,44.73
2018-09-18T02:50:56.021Z,44.63
2018-09-18T02:50:56.622Z,44.53
2018-09-18T02:50:57.219Z,44.63
2018-09-18T02:50:57.819Z,44.63
2018-09-18T02:50:58.419Z,44.63
2018-09-18T02:51:52.475Z,44.82
2018-09-18T02:51:53.073Z,44.92
2018-09-18T02:51:53.678Z,44.73
2018-09-18T02:51:54.271Z,44.92
2018-09-18T02:51:54.871Z,44.82
2018-09-18T02:51:55.472Z,44.63
2018-09-18T02:51:56.070Z,44.92
2018-09-18T02:52:50.152Z,46.15
2018-09-18T02:52:50.723Z,46.06
2018-09-18T02:52:51.324Z,46.06
2018-09-18T02:52:51.922Z,45.97
2018-09-18T02:52:52.523Z,45.97
2018-09-18T02:52:53.126Z,45.97
2018-09-18T02:52:53.723Z,45.97
2018-09-18T02:53:47.777Z,47.20
2018-09-18T02:53:48.375Z,47.49
2018-09-18T02:53:48.975Z,47.39
2018-09-18T02:53:49.575Z,47.39
2018-09-18T02:53:50.175Z,47.39
2018-09-18T02:53:50.774Z,47.39
2018-09-18T02:53:51.375Z,47.39
2018-09-18T02:54:45.429Z,47.87
2018-09-18T02:54:46.028Z,47.97
2018-09-18T02:54:46.627Z,47.97
2018-09-18T02:54:47.227Z,47.78
2018-09-18T02:54:47.826Z,48.07
2018-09-18T02:54:48.427Z,47.87
2018-09-18T02:54:49.027Z,47.87
2018-09-18T02:55:43.081Z,47.78
2018-09-18T02:55:43.678Z,47.87
2018-09-18T02:55:44.278Z,47.87
2018-09-18T02:55:44.878Z,48.07
2018-09-18T02:55:45.480Z,47.87
2018-09-18T02:55:46.079Z,47.87
2018-09-18T02:55:46.680Z,47.87
2018-09-18T02:56:40.732Z,47.97
2018-09-18T02:56:41.334Z,48.07
2018-09-18T02:56:41.929Z,47.97
2018-09-18T02:56:42.530Z,47.87
2018-09-18T02:56:43.131Z,47.68
2018-09-18T02:56:43.735Z,47.87
2018-09-18T02:56:44.332Z,47.87
2018-09-18T02:57:38.406Z,47.49
2018-09-18T02:57:38.981Z,47.49
2018-09-18T02:57:39.580Z,47.49
2018-09-18T02:57:40.181Z,47.39
2018-09-18T02:57:40.781Z,47.58
2018-09-18T02:57:41.382Z,47.49
2018-09-18T02:57:41.981Z,47.49
2018-09-18T02:58:36.036Z,46.25
2018-09-18T02:58:36.633Z,46.25
2018-09-18T02:58:37.234Z,46.34
2018-09-18T02:58:37.833Z,46.25
2018-09-18T02:58:38.432Z,46.25
2018-09-18T02:58:39.033Z,46.25
2018-09-18T02:58:39.633Z,46.25
2018-09-18T02:59:33.691Z,47.68
2018-09-18T02:59:34.286Z,47.58
2018-09-18T02:59:34.884Z,47.58
2018-09-18T02:59:35.484Z,47.58
2018-09-18T02:59:36.084Z,47.58
2018-09-18T02:59:36.692Z,47.39
2018-09-18T02:59:37.286Z,47.68
2018-09-18T03:00:31.341Z,47.39
2018-09-18T03:00:31.937Z,47.58
2018-09-18T03:00:32.536Z,47.49
2018-09-18T03:00:33.137Z,47.58
2018-09-18T03:00:33.737Z,47.58
2018-09-18T03:00:34.336Z,47.49
2018-09-18T03:00:34.936Z,47.49
2018-09-18T03:01:28.992Z,45.97
2018-09-18T03:01:29.589Z,45.97
2018-09-18T03:01:30.188Z,45.97
2018-09-18T03:01:30.790Z,45.97
2018-09-18T03:01:31.388Z,45.97
2018-09-18T03:01:31.988Z,46.06
2018-09-18T03:01:32.590Z,45.97
2018-09-18T03:02:26.664Z,46.44
2018-09-18T03:02:27.240Z,46.44
2018-09-18T03:02:27.841Z,46.44
2018-09-18T03:02:28.439Z,46.15
2018-09-18T03:02:29.043Z,46.44
2018-09-18T03:02:29.642Z,46.15
2018-09-18T03:02:30.240Z,46.06
2018-09-18T03:03:24.295Z,47.39
2018-09-18T03:03:24.892Z,47.30
2018-09-18T03:03:25.492Z,47.49
2018-09-18T03:03:26.091Z,47.49
2018-09-18T03:03:26.694Z,47.39
2018-09-18T03:03:27.291Z,47.39
2018-09-18T03:03:27.892Z,47.49
2018-09-18T03:04:21.947Z,48.16
2018-09-18T03:04:22.543Z,48.35
2018-09-18T03:04:23.142Z,48.35
2018-09-18T03:04:23.745Z,48.35
2018-09-18T03:04:24.344Z,48.35
2018-09-18T03:04:24.943Z,48.44
2018-09-18T03:04:25.544Z,48.44
2018-09-18T03:05:19.598Z,47.49
2018-09-18T03:05:20.196Z,47.58
2018-09-18T03:05:20.796Z,47.58
2018-09-18T03:05:21.412Z,47.58
2018-09-18T03:05:21.996Z,47.39
2018-09-18T03:05:22.594Z,47.58
2018-09-18T03:05:23.196Z,47.30
2018-09-18T03:06:17.250Z,48.92
2018-09-18T03:06:17.848Z,48.92
2018-09-18T03:06:18.446Z,48.35
2018-09-18T03:06:19.046Z,48.92
2018-09-18T03:06:19.647Z,48.54
2018-09-18T03:06:20.247Z,48.73
2018-09-18T03:06:20.847Z,48.54
2018-09-18T03:07:14.932Z,49.78
2018-09-18T03:07:15.500Z,49.78
2018-09-18T03:07:16.098Z,49.78
2018-09-18T03:07:16.697Z,49.78
2018-09-18T03:07:17.298Z,49.49
2018-09-18T03:07:17.901Z,49.78
2018-09-18T03:07:18.498Z,49.68
2018-09-18T03:08:12.553Z,49.02
2018-09-18T03:08:13.151Z,49.02
2018-09-18T03:08:13.752Z,49.02
2018-09-18T03:08:14.350Z,49.11
2018-09-18T03:08:14.954Z,49.11
2018-09-18T03:08:15.552Z,48.92
2018-09-18T03:08:16.149Z,49.02
2018-09-18T03:09:10.208Z,47.58
2018-09-18T03:09:10.800Z,47.49
2018-09-18T03:09:11.401Z,47.58
2018-09-18T03:09:12.001Z,47.68
2018-09-18T03:09:12.600Z,47.49
2018-09-18T03:09:13.199Z,47.49
2018-09-18T03:09:13.802Z,47.58
2018-09-18T03:10:07.858Z,48.35
2018-09-18T03:10:08.454Z,48.35
2018-09-18T03:10:09.054Z,48.35
2018-09-18T03:10:09.653Z,48.35
2018-09-18T03:10:10.252Z,48.35
2018-09-18T03:10:10.853Z,48.35
2018-09-18T03:10:11.453Z,48.35
2018-09-18T03:11:05.532Z,47.87
2018-09-18T03:11:06.138Z,47.97
2018-09-18T03:11:06.754Z,48.16
2018-09-18T03:11:07.383Z,48.07
2018-09-18T03:11:07.968Z,48.07
2018-09-18T03:11:08.561Z,48.16
2018-09-18T03:11:09.129Z,48.16
2018-09-18T03:12:03.160Z,49.11
2018-09-18T03:12:03.758Z,49.21
2018-09-18T03:12:04.358Z,49.30
2018-09-18T03:12:04.958Z,49.21
2018-09-18T03:12:05.559Z,49.11
2018-09-18T03:12:06.158Z,49.30
2018-09-18T03:12:06.757Z,49.21
2018-09-18T03:13:00.834Z,49.87
2018-09-18T03:13:01.410Z,49.87
2018-09-18T03:13:02.009Z,49.87
2018-09-18T03:13:02.611Z,49.87
2018-09-18T03:13:03.210Z,49.87
2018-09-18T03:13:03.810Z,49.87
2018-09-18T03:13:04.409Z,49.87
2018-09-18T03:13:58.464Z,49.59
2018-09-18T03:13:59.062Z,49.59
2018-09-18T03:13:59.661Z,49.68
2018-09-18T03:14:00.261Z,49.59
2018-09-18T03:14:00.861Z,49.78
2018-09-18T03:14:01.461Z,49.78
2018-09-18T03:14:02.063Z,49.59
2018-09-18T03:14:56.115Z,49.02
2018-09-18T03:14:56.713Z,49.02
2018-09-18T03:14:57.313Z,49.11
2018-09-18T03:14:57.912Z,49.02
2018-09-18T03:14:58.512Z,49.02
2018-09-18T03:14:59.113Z,49.11
2018-09-18T03:14:59.712Z,49.02
2018-09-18T03:15:53.775Z,49.40
2018-09-18T03:15:54.365Z,49.40
2018-09-18T03:15:54.965Z,49.59
2018-09-18T03:15:55.564Z,49.49
2018-09-18T03:15:56.169Z,49.40
2018-09-18T03:15:56.767Z,49.49
2018-09-18T03:15:57.365Z,49.30
2018-09-18T03:16:51.418Z,48.44
2018-09-18T03:16:52.017Z,48.35
2018-09-18T03:16:52.616Z,48.25
2018-09-18T03:16:53.215Z,48.25
2018-09-18T03:16:53.817Z,48.44
2018-09-18T03:16:54.415Z,48.44
2018-09-18T03:16:55.016Z,48.44
2018-09-18T03:17:49.093Z,48.92
2018-09-18T03:17:49.670Z,49.02
2018-09-18T03:17:50.269Z,48.92